Time;durP1;ratioP1;P1;durP2;ratioP2;P2;SDS_P1;SDS_P2;PMS_P1;PMS_P2;Temp;Humidity;BMP_temperature;BMP_pressure;BME280_temperature;BME280_humidity;BME280_pressure;Samples;Min_cycle;Max_cycle;Signal;HPM_P1;HPM_P2
2021/08/10 00:02:06;;;;;;;17.67;4.40;;;;;;;;;;4998947;28;20033;-63
2021/08/10 00:04:32;;;;;;;7.95;5.10;;;;;;;;;;5001056;28;20025;-63
2021/08/10 00:06:58;;;;;;;16.05;5.15;;;;;;;;;;4969766;28;20795;-64
2021/08/10 00:09:23;;;;;;;9.23;4.70;;;;;;;;;;5002749;28;20068;-63
2021/08/10 00:11:49;;;;;;;16.40;4.70;;;;;;;;;;5000497;28;20128;-64
2021/08/10 00:14:17;;;;;;;10.68;4.72;;;;;;;;;;4968280;28;20124;-63
2021/08/10 00:16:43;;;;;;;15.77;6.57;;;;;;;;;;5004171;28;20543;-64
2021/08/10 00:19:08;;;;;;;14.35;7.28;;;;;;;;;;5000136;28;20656;-63
2021/08/10 00:21:34;;;;;;;9.27;4.93;;;;;;;;;;4967202;28;20083;-63
2021/08/10 00:24:04;;;;;;;12.43;4.97;;;;;;;;;;4984067;28;20033;-63
2021/08/10 00:26:30;;;;;;;11.93;5.13;;;;;;;;;;5001936;28;20060;-64
2021/08/10 00:28:56;;;;;;;17.45;5.65;;;;;;;;;;5001460;28;20033;-63
2021/08/10 00:31:22;;;;;;;11.15;5.55;;;;;;;;;;5000169;28;20136;-63
2021/08/10 00:33:50;;;;;;;13.18;5.57;;;;;;;;;;4981059;28;20042;-60
2021/08/10 00:36:18;;;;;;;16.77;5.65;;;;;;;;;;4998109;28;20038;-63
2021/08/10 00:38:43;;;;;;;7.65;4.68;;;;;;;;;;4978720;28;20269;-63
2021/08/10 00:41:09;;;;;;;11.25;5.72;;;;;;;;;;4993635;28;20958;-64
2021/08/10 00:43:37;;;;;;;11.77;5.25;;;;;;;;;;4978312;28;20488;-63
2021/08/10 00:46:07;;;;;;;13.93;5.60;;;;;;;;;;4980927;28;20030;-65
2021/08/10 00:48:33;;;;;;;13.88;5.10;;;;;;;;;;4977963;28;20030;-65
2021/08/10 00:50:59;;;;;;;15.50;5.15;;;;;;;;;;4995994;28;20034;-65
2021/08/10 00:53:27;;;;;;;19.75;5.43;;;;;;;;;;4996049;28;20134;-64
2021/08/10 00:55:53;;;;;;;17.85;5.28;;;;;;;;;;4980923;28;20025;-62
2021/08/10 00:58:18;;;;;;;14.38;4.43;;;;;;;;;;4981406;28;20309;-62
2021/08/10 01:00:44;;;;;;;8.57;4.43;;;;;;;;;;4978999;28;20031;-63
2021/08/10 01:03:11;;;;;;;15.52;4.30;;;;;;;;;;4981248;28;22190;-63
2021/08/10 01:05:38;;;;;;;11.73;4.20;;;;;;;;;;4982111;28;20058;-63
2021/08/10 01:08:27;;;;;;;14.23;5.00;;;;;;;;;;4975841;28;20034;-64
2021/08/10 01:10:58;;;;;;;16.48;4.18;;;;;;;;;;4972012;28;20046;-65
2021/08/10 01:13:32;;;;;;;14.38;4.50;;;;;;;;;;4980086;28;20038;-64
2021/08/10 01:16:17;;;;;;;21.77;5.35;;;;;;;;;;4997302;28;20209;-64
2021/08/10 01:18:59;;;;;;;7.43;4.00;;;;;;;;;;4980562;28;20089;-64
2021/08/10 01:21:37;;;;;;;9.48;4.50;;;;;;;;;;4979367;28;20096;-64
2021/08/10 01:24:06;;;;;;;8.70;4.20;;;;;;;;;;4980677;28;20148;-64
2021/08/10 01:26:37;;;;;;;15.02;4.80;;;;;;;;;;4979267;28;20290;-65
2021/08/10 01:29:16;;;;;;;17.15;4.95;;;;;;;;;;4981880;28;20094;-66
2021/08/10 01:31:42;;;;;;;14.80;5.38;;;;;;;;;;4981909;28;20030;-63
2021/08/10 01:34:14;;;;;;;13.63;5.15;;;;;;;;;;4998745;28;20045;-64
2021/08/10 01:36:41;;;;;;;17.30;5.47;;;;;;;;;;5000943;28;20049;-65
2021/08/10 01:39:07;;;;;;;13.98;5.40;;;;;;;;;;5000012;28;20803;-65
2021/08/10 01:41:34;;;;;;;15.00;4.93;;;;;;;;;;5002534;28;20496;-65
2021/08/10 01:44:01;;;;;;;12.13;4.90;;;;;;;;;;4999450;28;20105;-64
2021/08/10 01:46:29;;;;;;;8.98;4.57;;;;;;;;;;4983110;28;20140;-64
2021/08/10 01:48:59;;;;;;;14.93;4.75;;;;;;;;;;5000614;28;20036;-64
2021/08/10 01:51:28;;;;;;;10.60;5.07;;;;;;;;;;4999846;28;20052;-63
2021/08/10 01:53:58;;;;;;;5.05;3.75;;;;;;;;;;5000215;28;20036;-65
2021/08/10 01:56:25;;;;;;;16.63;4.38;;;;;;;;;;5000370;28;20571;-65
2021/08/10 01:58:51;;;;;;;16.38;5.60;;;;;;;;;;4986851;28;20079;-64
2021/08/10 02:01:17;;;;;;;19.10;5.60;;;;;;;;;;5000492;28;20029;-64
2021/08/10 02:03:44;;;;;;;9.35;4.97;;;;;;;;;;4998512;28;20033;-64
2021/08/10 02:06:11;;;;;;;15.00;4.75;;;;;;;;;;4979811;28;20122;-64
2021/08/10 02:08:37;;;;;;;11.93;4.93;;;;;;;;;;4986404;28;20037;-64
2021/08/10 02:11:04;;;;;;;10.02;5.07;;;;;;;;;;4982200;28;20034;-64
2021/08/10 02:13:29;;;;;;;17.95;5.38;;;;;;;;;;4999922;28;20018;-65
2021/08/10 02:15:56;;;;;;;15.85;5.60;;;;;;;;;;5000538;28;20034;-65
2021/08/10 02:18:24;;;;;;;10.18;4.70;;;;;;;;;;4997741;28;20033;-65
2021/08/10 02:20:51;;;;;;;14.00;5.15;;;;;;;;;;4998682;28;20034;-64
2021/08/10 02:23:18;;;;;;;17.65;4.57;;;;;;;;;;4996856;28;20965;-64
2021/08/10 02:25:44;;;;;;;15.07;5.53;;;;;;;;;;4998517;28;20130;-65
2021/08/10 02:28:14;;;;;;;12.52;5.07;;;;;;;;;;4999437;28;20057;-65
2021/08/10 02:30:43;;;;;;;14.45;5.57;;;;;;;;;;4998858;28;20148;-64
2021/08/10 02:33:11;;;;;;;12.50;5.20;;;;;;;;;;4998233;28;20807;-64
2021/08/10 02:35:38;;;;;;;6.80;4.53;;;;;;;;;;4995089;28;20053;-64
2021/08/10 02:38:08;;;;;;;15.77;5.95;;;;;;;;;;4994446;28;21243;-64
2021/08/10 02:40:35;;;;;;;19.48;5.78;;;;;;;;;;4997133;28;20488;-63
2021/08/10 02:43:01;;;;;;;15.18;6.05;;;;;;;;;;4996843;28;20021;-65
2021/08/10 02:45:27;;;;;;;10.15;5.30;;;;;;;;;;4999742;28;20050;-64
2021/08/10 02:47:53;;;;;;;14.88;5.93;;;;;;;;;;4998595;28;20104;-64
2021/08/10 02:50:20;;;;;;;16.75;5.90;;;;;;;;;;4995891;28;20033;-64
2021/08/10 02:52:45;;;;;;;16.70;6.18;;;;;;;;;;4997860;28;20771;-64
2021/08/10 02:55:21;;;;;;;11.13;6.03;;;;;;;;;;4977788;28;20080;-62
2021/08/10 02:57:55;;;;;;;24.40;6.78;;;;;;;;;;4997339;28;20052;-64
2021/08/10 03:00:21;;;;;;;10.73;5.75;;;;;;;;;;4999419;28;20103;-64
2021/08/10 03:02:52;;;;;;;18.88;6.28;;;;;;;;;;4978225;28;20037;-65
2021/08/10 03:05:21;;;;;;;10.70;5.38;;;;;;;;;;4967130;28;20793;-63
2021/08/10 03:07:49;;;;;;;11.27;5.63;;;;;;;;;;4998260;28;20476;-65
2021/08/10 03:10:17;;;;;;;14.65;5.97;;;;;;;;;;4996165;28;20029;-65
2021/08/10 03:12:49;;;;;;;12.18;5.53;;;;;;;;;;4980412;28;20124;-65
2021/08/10 03:15:15;;;;;;;14.35;6.22;;;;;;;;;;4997464;28;20600;-65
2021/08/10 03:17:41;;;;;;;11.63;5.72;;;;;;;;;;4981293;28;20041;-63
2021/08/10 03:20:08;;;;;;;12.90;5.95;;;;;;;;;;4999125;28;20036;-64
2021/08/10 03:22:35;;;;;;;13.50;5.55;;;;;;;;;;4996737;28;20025;-63
2021/08/10 03:25:04;;;;;;;17.95;5.97;;;;;;;;;;4995955;28;20029;-65
2021/08/10 03:27:29;;;;;;;14.35;5.75;;;;;;;;;;4998040;28;20163;-64
2021/08/10 03:29:55;;;;;;;17.23;5.72;;;;;;;;;;4999544;28;20037;-64
2021/08/10 03:32:21;;;;;;;15.05;5.60;;;;;;;;;;4997068;28;20030;-63
2021/08/10 03:34:47;;;;;;;10.23;4.97;;;;;;;;;;4997557;28;20052;-64
2021/08/10 03:37:17;;;;;;;14.43;5.63;;;;;;;;;;4998879;28;20087;-64
2021/08/10 03:39:43;;;;;;;11.18;5.20;;;;;;;;;;4996066;28;20046;-63
2021/08/10 03:42:08;;;;;;;11.15;5.22;;;;;;;;;;4980970;28;20065;-64
2021/08/10 03:44:42;;;;;;;8.88;5.30;;;;;;;;;;4998000;28;20026;-63
2021/08/10 03:47:11;;;;;;;13.88;5.20;;;;;;;;;;4996388;28;20732;-64
2021/08/10 03:49:37;;;;;;;13.98;6.28;;;;;;;;;;4999363;28;20598;-64
2021/08/10 03:52:03;;;;;;;10.68;5.78;;;;;;;;;;4978506;28;20123;-64
2021/08/10 03:54:31;;;;;;;16.88;5.57;;;;;;;;;;4977456;28;20030;-65
2021/08/10 03:56:58;;;;;;;12.90;5.25;;;;;;;;;;4997797;28;20033;-66
2021/08/10 03:59:24;;;;;;;13.05;5.60;;;;;;;;;;4995010;28;20056;-64
2021/08/10 04:01:51;;;;;;;12.77;5.53;;;;;;;;;;4965024;28;20156;-64
2021/08/10 04:04:17;;;;;;;12.10;5.13;;;;;;;;;;4996634;28;20049;-64
2021/08/10 04:06:44;;;;;;;17.10;5.82;;;;;;;;;;4994667;28;20053;-65
2021/08/10 04:09:09;;;;;;;17.55;6.20;;;;;;;;;;4998035;28;20567;-64
2021/08/10 04:11:37;;;;;;;15.88;5.68;;;;;;;;;;4998835;28;20053;-65
2021/08/10 04:14:03;;;;;;;13.18;4.97;;;;;;;;;;4995740;28;20155;-66
2021/08/10 04:16:30;;;;;;;12.75;5.68;;;;;;;;;;4980913;28;20696;-65
2021/08/10 04:18:56;;;;;;;9.88;5.72;;;;;;;;;;4996695;28;20021;-65
2021/08/10 04:21:25;;;;;;;13.00;5.30;;;;;;;;;;4997571;28;20092;-65
2021/08/10 04:23:51;;;;;;;15.70;6.10;;;;;;;;;;4996567;28;20030;-65
2021/08/10 04:26:19;;;;;;;18.52;5.32;;;;;;;;;;4998483;28;20037;-66
2021/08/10 04:28:44;;;;;;;11.38;4.80;;;;;;;;;;4984144;28;20120;-64
2021/08/10 04:31:13;;;;;;;12.93;5.13;;;;;;;;;;4983746;28;20030;-63
2021/08/10 04:33:39;;;;;;;12.27;5.72;;;;;;;;;;4979563;28;20042;-63
2021/08/10 04:36:04;;;;;;;14.85;5.85;;;;;;;;;;4997342;28;20038;-63
2021/08/10 04:38:31;;;;;;;17.00;6.13;;;;;;;;;;4981021;28;20026;-63
2021/08/10 04:40:56;;;;;;;14.52;5.55;;;;;;;;;;4997088;28;20656;-63
2021/08/10 04:43:24;;;;;;;10.68;5.72;;;;;;;;;;4980743;28;20109;-63
2021/08/10 04:45:49;;;;;;;18.08;5.70;;;;;;;;;;4982579;28;20026;-63
2021/08/10 04:48:17;;;;;;;15.02;5.50;;;;;;;;;;4976395;28;20034;-63
2021/08/10 04:50:45;;;;;;;11.48;5.78;;;;;;;;;;4980176;28;20045;-63
2021/08/10 04:53:11;;;;;;;14.20;5.15;;;;;;;;;;4996004;28;20037;-63
2021/08/10 04:55:37;;;;;;;9.48;5.88;;;;;;;;;;4979090;28;20060;-62
2021/08/10 04:58:05;;;;;;;13.93;5.93;;;;;;;;;;4995806;28;20666;-63
2021/08/10 05:00:31;;;;;;;12.65;5.07;;;;;;;;;;4980776;28;20088;-63
2021/08/10 05:03:01;;;;;;;9.25;4.90;;;;;;;;;;4981832;28;20037;-63
2021/08/10 05:05:27;;;;;;;11.95;5.20;;;;;;;;;;4985575;28;20681;-62
2021/08/10 05:07:55;;;;;;;11.60;5.45;;;;;;;;;;4983515;28;20116;-64
2021/08/10 05:10:20;;;;;;;14.45;5.55;;;;;;;;;;4979835;28;20072;-63
2021/08/10 05:12:48;;;;;;;10.98;5.10;;;;;;;;;;4996707;28;20034;-62
2021/08/10 05:15:14;;;;;;;16.52;6.10;;;;;;;;;;4983520;28;20485;-63
2021/08/10 05:17:39;;;;;;;43.90;6.85;;;;;;;;;;4982311;28;20044;-62
2021/08/10 05:20:06;;;;;;;28.60;6.25;;;;;;;;;;4978383;28;20613;-61
2021/08/10 05:22:31;;;;;;;20.38;5.25;;;;;;;;;;4977535;28;20108;-62
2021/08/10 05:24:59;;;;;;;36.85;6.25;;;;;;;;;;4979145;28;20043;-62
2021/08/10 05:27:29;;;;;;;10.57;5.30;;;;;;;;;;4978745;28;20393;-61
2021/08/10 05:29:57;;;;;;;14.52;5.93;;;;;;;;;;4994960;28;20692;-60
2021/08/10 05:32:25;;;;;;;29.05;5.93;;;;;;;;;;4983014;28;20021;-60
2021/08/10 05:34:51;;;;;;;33.00;6.43;;;;;;;;;;4998116;28;20053;-59
2021/08/10 05:37:17;;;;;;;19.00;5.93;;;;;;;;;;4983631;28;20037;-60
2021/08/10 05:39:42;;;;;;;14.10;5.35;;;;;;;;;;4999794;28;20045;-60
2021/08/10 05:42:11;;;;;;;12.13;5.15;;;;;;;;;;4999140;28;20041;-60
2021/08/10 05:44:38;;;;;;;13.38;4.97;;;;;;;;;;5000623;28;20022;-59
2021/08/10 05:47:08;;;;;;;18.75;5.93;;;;;;;;;;4997307;28;20034;-59
2021/08/10 05:49:34;;;;;;;15.60;5.60;;;;;;;;;;4983187;28;20042;-59
2021/08/10 05:52:02;;;;;;;8.30;5.32;;;;;;;;;;5000741;28;20655;-59
2021/08/10 05:54:30;;;;;;;14.35;4.65;;;;;;;;;;4998773;28;20120;-59
2021/08/10 05:56:58;;;;;;;9.45;4.32;;;;;;;;;;4999390;28;20025;-60
2021/08/10 05:59:23;;;;;;;7.50;4.10;;;;;;;;;;4996925;28;20045;-59
2021/08/10 06:01:51;;;;;;;19.02;4.03;;;;;;;;;;4981474;28;20095;-60
2021/08/10 06:04:17;;;;;;;14.32;3.60;;;;;;;;;;4987769;28;20658;-60
2021/08/10 06:06:45;;;;;;;7.65;3.83;;;;;;;;;;4982502;28;20859;-60
2021/08/10 06:09:13;;;;;;;8.75;3.50;;;;;;;;;;5000222;28;20597;-61
2021/08/10 06:11:39;;;;;;;4.55;3.00;;;;;;;;;;4998521;28;20041;-60
2021/08/10 06:14:07;;;;;;;8.20;3.20;;;;;;;;;;4982253;28;20417;-59
2021/08/10 06:16:35;;;;;;;11.95;3.55;;;;;;;;;;4999540;28;20033;-59
2021/08/10 06:19:01;;;;;;;10.55;3.60;;;;;;;;;;4997494;28;20042;-59
2021/08/10 06:21:27;;;;;;;8.35;3.75;;;;;;;;;;4999561;28;20029;-59
2021/08/10 06:23:53;;;;;;;9.15;3.55;;;;;;;;;;4980310;28;20033;-59
2021/08/10 06:26:21;;;;;;;13.32;4.05;;;;;;;;;;5000554;28;20034;-58
2021/08/10 06:28:49;;;;;;;10.82;4.18;;;;;;;;;;4999031;28;20040;-59
2021/08/10 06:31:17;;;;;;;10.23;4.38;;;;;;;;;;4999746;28;20030;-59
2021/08/10 06:33:45;;;;;;;11.50;4.32;;;;;;;;;;5001983;28;20041;-58
2021/08/10 06:36:11;;;;;;;13.77;3.50;;;;;;;;;;4999104;28;20078;-58
2021/08/10 06:38:38;;;;;;;7.32;4.38;;;;;;;;;;4979883;28;20065;-60
2021/08/10 06:41:04;;;;;;;5.95;4.07;;;;;;;;;;4981740;28;20436;-60
2021/08/10 06:43:32;;;;;;;9.85;4.50;;;;;;;;;;4970953;28;20079;-60
2021/08/10 06:45:59;;;;;;;8.80;3.78;;;;;;;;;;4997928;28;20034;-60
2021/08/10 06:48:25;;;;;;;7.20;3.70;;;;;;;;;;4998756;28;20091;-60
2021/08/10 06:50:53;;;;;;;6.97;3.50;;;;;;;;;;4999780;28;20052;-61
2021/08/10 06:53:20;;;;;;;4.63;2.95;;;;;;;;;;4982488;28;20492;-61
2021/08/10 06:55:45;;;;;;;4.15;2.80;;;;;;;;;;4990197;28;20570;-61
2021/08/10 06:58:11;;;;;;;7.63;3.47;;;;;;;;;;4987874;28;20042;-61
2021/08/10 07:00:40;;;;;;;9.98;2.97;;;;;;;;;;4980838;28;20040;-61
2021/08/10 07:03:05;;;;;;;4.93;2.53;;;;;;;;;;4983728;28;20152;-60
2021/08/10 07:05:35;;;;;;;6.90;2.72;;;;;;;;;;5000798;28;20069;-61
2021/08/10 07:08:00;;;;;;;13.13;2.72;;;;;;;;;;4981646;28;20122;-61
2021/08/10 07:10:26;;;;;;;6.88;3.10;;;;;;;;;;4978546;28;22047;-61
2021/08/10 07:12:54;;;;;;;5.72;2.20;;;;;;;;;;4986727;28;20044;-60
2021/08/10 07:15:21;;;;;;;5.00;2.55;;;;;;;;;;4999064;28;20034;-61
2021/08/10 07:17:51;;;;;;;5.95;2.90;;;;;;;;;;4999584;28;20989;-61
2021/08/10 07:20:21;;;;;;;3.03;2.47;;;;;;;;;;4998437;28;20041;-59
2021/08/10 07:22:47;;;;;;;5.15;2.72;;;;;;;;;;4999331;28;20038;-61
2021/08/10 07:25:13;;;;;;;6.07;2.60;;;;;;;;;;4999578;28;20033;-61
2021/08/10 07:27:38;;;;;;;5.70;2.53;;;;;;;;;;4970985;28;20040;-62
2021/08/10 07:30:05;;;;;;;4.32;2.40;;;;;;;;;;5000116;28;20032;-64
2021/08/10 07:32:33;;;;;;;3.80;2.33;;;;;;;;;;4982185;28;20110;-64
2021/08/10 07:35:01;;;;;;;4.38;2.45;;;;;;;;;;4997945;28;20583;-63
2021/08/10 07:37:29;;;;;;;5.30;2.70;;;;;;;;;;4999073;28;20046;-62
2021/08/10 07:39:57;;;;;;;3.28;2.40;;;;;;;;;;4999175;28;20384;-63
2021/08/10 07:42:22;;;;;;;5.30;2.42;;;;;;;;;;4982917;28;20091;-62
2021/08/10 07:44:50;;;;;;;9.10;2.45;;;;;;;;;;4996794;28;20172;-64
2021/08/10 07:47:16;;;;;;;5.53;2.58;;;;;;;;;;4998923;28;20021;-63
2021/08/10 07:49:44;;;;;;;7.30;2.28;;;;;;;;;;4982809;28;20042;-62
2021/08/10 07:52:15;;;;;;;4.75;2.38;;;;;;;;;;4964909;28;20033;-64
2021/08/10 07:54:44;;;;;;;3.00;2.00;;;;;;;;;;4982687;28;20133;-64
2021/08/10 07:57:12;;;;;;;4.50;1.90;;;;;;;;;;4983469;28;20042;-64
2021/08/10 07:59:39;;;;;;;4.03;1.83;;;;;;;;;;4980593;28;20049;-64
2021/08/10 08:02:05;;;;;;;3.10;1.52;;;;;;;;;;5001495;28;20953;-64
2021/08/10 08:04:40;;;;;;;3.05;1.70;;;;;;;;;;4986186;28;20041;-65
2021/08/10 08:07:10;;;;;;;4.68;1.88;;;;;;;;;;5004397;28;20056;-64
2021/08/10 08:09:38;;;;;;;2.97;1.50;;;;;;;;;;4984523;28;20057;-65
2021/08/10 08:12:06;;;;;;;4.00;1.48;;;;;;;;;;4968300;28;20654;-65
2021/08/10 08:14:34;;;;;;;2.10;1.55;;;;;;;;;;5002517;28;20699;-65
2021/08/10 08:17:07;;;;;;;5.50;1.15;;;;;;;;;;4986098;28;20049;-65
2021/08/10 08:19:32;;;;;;;3.47;1.27;;;;;;;;;;5001898;28;20441;-64
2021/08/10 08:22:01;;;;;;;5.50;1.65;;;;;;;;;;4986143;28;20045;-66
2021/08/10 08:24:28;;;;;;;6.53;1.58;;;;;;;;;;4985297;28;20033;-65
2021/08/10 08:26:54;;;;;;;6.25;1.75;;;;;;;;;;4967906;28;20037;-66
2021/08/10 08:29:20;;;;;;;5.20;2.17;;;;;;;;;;5000060;28;20087;-66
2021/08/10 08:31:48;;;;;;;4.93;2.35;;;;;;;;;;4997467;28;20032;-66
2021/08/10 08:34:13;;;;;;;5.32;2.30;;;;;;;;;;4981712;28;21133;-66
2021/08/10 08:36:39;;;;;;;4.72;2.30;;;;;;;;;;4983330;28;20084;-65
2021/08/10 08:39:09;;;;;;;5.13;2.50;;;;;;;;;;4982319;28;20041;-65
2021/08/10 08:41:34;;;;;;;6.07;2.10;;;;;;;;;;4998272;28;20104;-66
2021/08/10 08:44:02;;;;;;;7.03;2.63;;;;;;;;;;4984476;28;20033;-65
2021/08/10 08:46:28;;;;;;;5.05;2.08;;;;;;;;;;4997073;28;20160;-65
2021/08/10 08:48:56;;;;;;;6.03;2.35;;;;;;;;;;4982290;28;20029;-67
2021/08/10 08:51:26;;;;;;;4.72;1.92;;;;;;;;;;4997866;28;20026;-67
2021/08/10 08:53:58;;;;;;;4.15;1.67;;;;;;;;;;4995650;28;20034;-67
2021/08/10 08:56:26;;;;;;;3.47;1.90;;;;;;;;;;4981646;28;20039;-66
2021/08/10 08:58:52;;;;;;;5.18;2.05;;;;;;;;;;4969425;28;20030;-64
2021/08/10 09:01:19;;;;;;;3.47;1.85;;;;;;;;;;4995921;28;20481;-66
2021/08/10 09:03:50;;;;;;;4.53;2.00;;;;;;;;;;4984069;28;20023;-66
2021/08/10 09:06:16;;;;;;;4.97;1.80;;;;;;;;;;4962547;28;20068;-65
2021/08/10 09:08:43;;;;;;;3.03;1.90;;;;;;;;;;4997303;28;20036;-64
2021/08/10 09:11:11;;;;;;;9.25;1.80;;;;;;;;;;4974408;28;20034;-66
2021/08/10 09:13:53;;;;;;;2.25;1.48;;;;;;;;;;4996968;28;20104;-65
2021/08/10 09:16:20;;;;;;;3.28;1.50;;;;;;;;;;4980117;28;20034;-66
2021/08/10 09:18:50;;;;;;;2.55;1.67;;;;;;;;;;4996848;28;20035;-65
2021/08/10 09:21:22;;;;;;;3.55;2.00;;;;;;;;;;4979387;28;20045;-64
2021/08/10 09:23:53;;;;;;;4.40;2.60;;;;;;;;;;4979977;28;20034;-66
2021/08/10 09:26:21;;;;;;;4.80;1.88;;;;;;;;;;4980446;28;20117;-65
2021/08/10 09:28:47;;;;;;;5.15;1.73;;;;;;;;;;4986437;28;20032;-67
2021/08/10 09:31:31;;;;;;;4.63;2.20;;;;;;;;;;4976971;28;20034;-66
2021/08/10 09:34:02;;;;;;;4.68;1.77;;;;;;;;;;4978173;28;20093;-65
2021/08/10 09:36:28;;;;;;;4.47;2.15;;;;;;;;;;4973222;28;20048;-67
2021/08/10 09:38:57;;;;;;;8.40;2.35;;;;;;;;;;4980486;28;20026;-65
2021/08/10 09:41:27;;;;;;;4.72;1.88;;;;;;;;;;4977704;28;20034;-65
2021/08/10 09:44:18;;;;;;;3.97;2.00;;;;;;;;;;4987348;28;21280;-65
2021/08/10 09:46:49;;;;;;;5.72;1.95;;;;;;;;;;4980336;28;20034;-64
2021/08/10 09:49:17;;;;;;;4.13;1.80;;;;;;;;;;4967443;28;20082;-64
2021/08/10 09:51:46;;;;;;;2.97;1.60;;;;;;;;;;4979914;28;20061;-64
2021/08/10 09:54:14;;;;;;;4.90;2.00;;;;;;;;;;4979349;28;20042;-66
2021/08/10 09:56:53;;;;;;;3.83;2.05;;;;;;;;;;4978371;28;20030;-65
2021/08/10 09:59:22;;;;;;;8.57;2.38;;;;;;;;;;4979488;28;20046;-65
2021/08/10 10:01:51;;;;;;;5.93;2.33;;;;;;;;;;4975591;28;20348;-64
2021/08/10 10:04:25;;;;;;;3.90;1.75;;;;;;;;;;4980277;28;20061;-64
2021/08/10 10:06:56;;;;;;;2.95;1.35;;;;;;;;;;4979694;28;20032;-66
2021/08/10 10:09:25;;;;;;;6.32;2.03;;;;;;;;;;4977048;28;20042;-64
2021/08/10 10:12:00;;;;;;;3.80;1.77;;;;;;;;;;4979605;28;20022;-66
2021/08/10 10:14:28;;;;;;;2.05;1.40;;;;;;;;;;4980406;28;20029;-64
2021/08/10 10:16:57;;;;;;;1.88;1.40;;;;;;;;;;4995092;28;20088;-65
2021/08/10 10:19:23;;;;;;;3.95;1.80;;;;;;;;;;4967544;28;20124;-64
2021/08/10 10:21:53;;;;;;;6.32;2.00;;;;;;;;;;4977757;28;20034;-63
2021/08/10 10:24:20;;;;;;;5.00;2.17;;;;;;;;;;4978084;28;22130;-62
2021/08/10 10:26:48;;;;;;;8.38;2.70;;;;;;;;;;4978393;28;20160;-64
2021/08/10 10:29:17;;;;;;;3.78;2.22;;;;;;;;;;4979487;28;20036;-62
2021/08/10 10:31:43;;;;;;;12.77;2.88;;;;;;;;;;4958407;28;20057;-61
2021/08/10 10:34:12;;;;;;;9.63;2.88;;;;;;;;;;4994991;28;20053;-61
2021/08/10 10:36:39;;;;;;;14.15;3.42;;;;;;;;;;4999812;28;20068;-59
2021/08/10 10:39:07;;;;;;;26.67;3.90;;;;;;;;;;4980023;28;20026;-59
2021/08/10 10:41:33;;;;;;;14.85;3.40;;;;;;;;;;4998427;28;20047;-60
2021/08/10 10:44:00;;;;;;;19.80;4.25;;;;;;;;;;4996575;28;20029;-60
2021/08/10 10:46:28;;;;;;;53.53;4.82;;;;;;;;;;4999644;28;20091;-60
2021/08/10 10:48:56;;;;;;;42.03;3.92;;;;;;;;;;5000631;28;20500;-63
2021/08/10 10:51:31;;;;;;;6.50;2.95;;;;;;;;;;4979723;28;20148;-62
2021/08/10 10:54:27;;;;;;;15.68;3.63;;;;;;;;;;4996280;28;21298;-62
2021/08/10 10:56:55;;;;;;;;;;;;;;;;;;5000804;28;20509;-63
2021/08/10 10:59:36;;;;;;;28.42;3.33;;;;;;;;;;4998090;28;20380;-63
2021/08/10 11:02:13;;;;;;;11.70;3.60;;;;;;;;;;4999339;28;20033;-63
2021/08/10 11:04:38;;;;;;;8.43;3.75;;;;;;;;;;4981220;28;20043;-62
2021/08/10 11:07:31;;;;;;;13.90;3.72;;;;;;;;;;4997397;28;20029;-62
2021/08/10 11:09:57;;;;;;;8.45;3.33;;;;;;;;;;4979697;28;20034;-62
2021/08/10 11:12:54;;;;;;;8.88;3.15;;;;;;;;;;4981982;28;20045;-63
2021/08/10 11:15:21;;;;;;;11.63;3.22;;;;;;;;;;4989574;28;20043;-63
2021/08/10 11:18:05;;;;;;;6.95;3.03;;;;;;;;;;5000179;28;20069;-62
2021/08/10 11:20:33;;;;;;;8.65;3.15;;;;;;;;;;4996387;28;20042;-62
2021/08/10 11:23:26;;;;;;;17.50;3.55;;;;;;;;;;4996944;28;20660;-62
2021/08/10 11:25:58;;;;;;;10.18;3.47;;;;;;;;;;4995648;28;20040;-62
2021/08/10 11:28:27;;;;;;;7.50;3.72;;;;;;;;;;4980622;28;20033;-62
2021/08/10 11:30:53;;;;;;;6.72;3.10;;;;;;;;;;4998006;28;20044;-61
2021/08/10 11:33:34;;;;;;;14.82;3.38;;;;;;;;;;4997293;28;20566;-62
2021/08/10 11:36:14;;;;;;;5.82;3.17;;;;;;;;;;4999334;28;20312;-62
2021/08/10 11:38:47;;;;;;;6.75;3.10;;;;;;;;;;4996419;28;20022;-63
2021/08/10 11:41:18;;;;;;;7.72;3.08;;;;;;;;;;4997718;28;20037;-62
2021/08/10 11:43:50;;;;;;;4.05;2.17;;;;;;;;;;4970753;28;20038;-62
2021/08/10 11:46:20;;;;;;;8.23;2.63;;;;;;;;;;4997788;28;22000;-62
2021/08/10 11:48:49;;;;;;;5.57;2.45;;;;;;;;;;4981956;28;20021;-63
2021/08/10 11:51:24;;;;;;;3.50;1.75;;;;;;;;;;4999736;28;20659;-62
2021/08/10 11:53:55;;;;;;;5.93;1.88;;;;;;;;;;4976692;28;20044;-62
2021/08/10 11:56:20;;;;;;;4.40;2.03;;;;;;;;;;4995205;28;20033;-62
2021/08/10 11:58:48;;;;;;;4.45;2.13;;;;;;;;;;4999634;28;20030;-62
2021/08/10 12:01:16;;;;;;;5.85;2.05;;;;;;;;;;4997200;28;21012;-62
2021/08/10 12:03:46;;;;;;;4.03;2.38;;;;;;;;;;4998389;28;20033;-62
2021/08/10 12:06:12;;;;;;;6.20;2.25;;;;;;;;;;4979053;28;20130;-61
2021/08/10 12:08:39;;;;;;;2.85;1.50;;;;;;;;;;4998269;28;20037;-61
2021/08/10 12:11:05;;;;;;;1.50;1.10;;;;;;;;;;4981222;28;21014;-62
2021/08/10 12:13:31;;;;;;;1.73;1.25;;;;;;;;;;4980967;28;20034;-62
2021/08/10 12:15:57;;;;;;;3.10;1.73;;;;;;;;;;4996898;28;20120;-62
2021/08/10 12:18:24;;;;;;;3.80;1.67;;;;;;;;;;4996685;28;20025;-65
2021/08/10 12:20:57;;;;;;;3.28;1.73;;;;;;;;;;4996537;28;20037;-63
2021/08/10 12:23:23;;;;;;;3.47;1.52;;;;;;;;;;4967623;28;20109;-63
2021/08/10 12:25:54;;;;;;;4.07;2.00;;;;;;;;;;4981225;28;20030;-65
2021/08/10 12:28:22;;;;;;;4.60;2.08;;;;;;;;;;4984103;28;20030;-64
2021/08/10 12:30:52;;;;;;;2.55;1.85;;;;;;;;;;4998814;28;20478;-64
2021/08/10 12:33:23;;;;;;;2.33;1.58;;;;;;;;;;4980432;28;20038;-64
2021/08/10 12:36:03;;;;;;;2.47;1.77;;;;;;;;;;4965175;28;21075;-64
2021/08/10 12:38:31;;;;;;;2.47;2.00;;;;;;;;;;4996970;28;20034;-69
2021/08/10 12:40:59;;;;;;;2.60;1.60;;;;;;;;;;4997024;28;20148;-64
2021/08/10 12:43:50;;;;;;;3.50;1.67;;;;;;;;;;4994320;28;22096;-63
2021/08/10 12:46:31;;;;;;;3.00;1.73;;;;;;;;;;4996756;28;20048;-65
2021/08/10 12:49:04;;;;;;;3.13;1.50;;;;;;;;;;5001231;28;20706;-64
2021/08/10 12:51:48;;;;;;;3.40;1.73;;;;;;;;;;4980221;28;20061;-65
2021/08/10 12:54:14;;;;;;;3.55;1.80;;;;;;;;;;4995906;28;20048;-65
2021/08/10 12:56:42;;;;;;;2.58;1.58;;;;;;;;;;4999904;28;20033;-65
2021/08/10 12:59:11;;;;;;;3.92;1.63;;;;;;;;;;4999863;28;20030;-65
2021/08/10 13:01:40;;;;;;;2.60;1.70;;;;;;;;;;5001810;28;20056;-66
2021/08/10 13:04:08;;;;;;;2.55;1.63;;;;;;;;;;4998871;28;20072;-65
2021/08/10 13:06:36;;;;;;;1.77;1.40;;;;;;;;;;5001336;28;20037;-65
2021/08/10 13:09:06;;;;;;;2.92;1.52;;;;;;;;;;4999135;28;20083;-65
2021/08/10 13:11:35;;;;;;;4.70;1.80;;;;;;;;;;4998062;28;20030;-64
2021/08/10 13:14:11;;;;;;;3.63;1.65;;;;;;;;;;4981373;28;22162;-65
2021/08/10 13:16:41;;;;;;;4.43;2.13;;;;;;;;;;4997813;28;20037;-67
2021/08/10 13:19:17;;;;;;;3.22;1.67;;;;;;;;;;4998392;28;20088;-66
2021/08/10 13:21:49;;;;;;;3.58;2.10;;;;;;;;;;4997916;28;20476;-64
2021/08/10 13:24:19;;;;;;;7.13;2.00;;;;;;;;;;4980476;28;20026;-66
2021/08/10 13:26:51;;;;;;;2.95;1.52;;;;;;;;;;4996303;28;20406;-66
2021/08/10 13:29:22;;;;;;;2.53;1.70;;;;;;;;;;5001036;28;22571;-66
2021/08/10 13:31:54;;;;;;;2.40;1.60;;;;;;;;;;4997833;28;20532;-66
2021/08/10 13:34:21;;;;;;;2.40;1.35;;;;;;;;;;4995019;28;20115;-66
2021/08/10 13:36:47;;;;;;;7.38;2.00;;;;;;;;;;4978413;28;20026;-66
2021/08/10 13:39:14;;;;;;;2.72;1.67;;;;;;;;;;4978078;28;20698;-66
2021/08/10 13:41:43;;;;;;;3.10;1.73;;;;;;;;;;4977222;28;20076;-66
2021/08/10 13:44:09;;;;;;;3.58;2.03;;;;;;;;;;4995640;28;20602;-66
2021/08/10 13:46:41;;;;;;;3.55;1.60;;;;;;;;;;4996184;28;20493;-65
2021/08/10 13:49:08;;;;;;;2.60;1.70;;;;;;;;;;4966711;28;20034;-66
2021/08/10 13:51:36;;;;;;;3.05;1.08;;;;;;;;;;4994936;28;20030;-66
2021/08/10 13:54:02;;;;;;;1.70;1.20;;;;;;;;;;4977179;28;20065;-68
2021/08/10 13:56:29;;;;;;;2.17;1.50;;;;;;;;;;4993837;28;20046;-66
2021/08/10 13:58:58;;;;;;;3.78;1.17;;;;;;;;;;4977607;28;20132;-66
2021/08/10 14:01:33;;;;;;;3.58;1.60;;;;;;;;;;4961528;28;20025;-67
2021/08/10 14:04:01;;;;;;;1.98;1.45;;;;;;;;;;4979944;28;20120;-66
2021/08/10 14:06:27;;;;;;;3.58;1.45;;;;;;;;;;4980206;28;20026;-67
2021/08/10 14:08:53;;;;;;;2.88;1.90;;;;;;;;;;4992964;28;20517;-66
2021/08/10 14:11:21;;;;;;;3.75;1.58;;;;;;;;;;4974605;28;20026;-67
2021/08/10 14:13:51;;;;;;;3.83;1.52;;;;;;;;;;4978857;28;20038;-68
2021/08/10 14:16:19;;;;;;;3.05;1.48;;;;;;;;;;4970985;28;20033;-66
2021/08/10 14:18:48;;;;;;;3.28;1.65;;;;;;;;;;4991532;28;22144;-68
2021/08/10 14:21:16;;;;;;;2.15;1.60;;;;;;;;;;4972173;28;20040;-67
2021/08/10 14:23:41;;;;;;;4.38;2.22;;;;;;;;;;4984577;28;20034;-68
2021/08/10 14:26:09;;;;;;;2.20;1.42;;;;;;;;;;4970658;28;20120;-68
2021/08/10 14:28:35;;;;;;;5.78;1.92;;;;;;;;;;4967831;28;20034;-67
2021/08/10 14:31:04;;;;;;;1.75;1.60;;;;;;;;;;4971890;28;21005;-68
2021/08/10 14:33:30;;;;;;;4.38;1.83;;;;;;;;;;4983221;28;20041;-67
2021/08/10 14:35:58;;;;;;;3.78;1.65;;;;;;;;;;4996289;28;20989;-67
2021/08/10 14:38:24;;;;;;;2.28;1.67;;;;;;;;;;4986619;28;20038;-67
2021/08/10 14:40:52;;;;;;;3.88;2.33;;;;;;;;;;4992108;28;20037;-67
2021/08/10 14:43:20;;;;;;;3.70;1.52;;;;;;;;;;4974704;28;20060;-67
2021/08/10 14:45:46;;;;;;;3.30;2.08;;;;;;;;;;4993775;28;20040;-67
2021/08/10 14:48:11;;;;;;;4.07;2.42;;;;;;;;;;4998204;28;20033;-66